CDT,Max TemperatureF,Mean TemperatureF,Min TemperatureF,Max Dew PointF,MeanDew PointF,Min DewpointF,Max Humidity, Mean Humidity, Min Humidity, Max Sea Level PressureIn, Mean Sea Level PressureIn, Min Sea Level PressureIn, Max VisibilityMiles, Mean VisibilityMiles, Min VisibilityMiles, Max Wind SpeedMPH, Mean Wind SpeedMPH, Max Gust SpeedMPH,PrecipitationIn, CloudCover, Events, WindDirDegrees
2011-9-1,78,70,62,73,66,61,94,90,78,29.91,29.79,29.71,8,3,0,17,8,26,0.01,8,Thunderstorm,135
2011-9-2,71,66,60,70,58,52,94,72,53,29.96,29.88,29.72,10,10,5,16,9,23,0.00,5,,313
2011-9-3,68,60,51,59,52,48,94,76,52,29.94,29.88,29.83,10,10,1,21,6,25,0.00,4,,247
2011-9-4,64,58,51,52,46,43,88,69,49,30.17,30.08,29.91,10,10,9,18,12,29,0.00,6,,339
2011-9-5,64,50,37,48,42,34,93,73,49,30.24,30.20,30.11,10,8,1,10,3,,0.00,2,,179
2011-9-6,71,56,42,52,46,39,93,70,43,30.18,30.16,30.14,10,10,9,16,7,21,0.00,0,,165
2011-9-7,77,60,44,59,51,41,93,74,47,30.32,30.27,30.21,10,9,1,8,2,,0.00,0,,248
2011-9-8,82,66,51,61,56,50,94,72,42,30.34,30.29,30.18,10,6,0,13,3,17,0.00,2,,331
2011-9-9,86,72,57,61,56,54,94,64,35,30.18,30.13,30.06,10,10,10,13,5,17,0.00,0,,338
2011-9-10,82,66,51,61,57,50,94,71,42,30.11,30.08,29.99,10,7,0,8,2,,0.00,1,,228
2011-9-11,82,70,59,61,58,55,88,63,42,29.98,29.94,29.90,10,10,10,12,4,16,0.00,0,,254
2011-9-12,80,68,55,63,56,45,94,70,50,29.90,29.74,29.62,10,10,8,26,9,33,0.00,3,,215
2011-9-13,66,54,41,46,42,37,93,66,40,29.99,29.95,29.90,10,10,1,20,9,47,0.06,2,,282
2011-9-14,51,42,32,32,29,27,87,68,41,30.36,30.23,30.10,10,10,10,26,13,34,0.00,3,,315
2011-9-15,53,40,26,37,30,23,93,68,43,30.44,30.39,30.30,10,8,0,9,1,,0.00,3,,290
2011-9-16,60,44,28,36,31,25,87,63,36,30.30,30.26,30.19,10,10,10,21,6,26,0.00,2,,170
2011-9-17,57,46,35,43,39,32,93,75,58,30.21,30.18,30.11,10,10,10,17,8,26,0.00,6,,148
2011-9-18,55,53,51,52,48,43,94,81,67,30.08,29.99,29.92,10,9,1,14,10,20,0.00,8,,161
2011-9-19,68,55,42,50,44,37,94,68,33,30.00,29.96,29.91,10,8,0,10,4,,0.00,0,,260
2011-9-20,59,55,51,54,46,41,88,73,58,29.87,29.71,29.60,10,10,5,15,10,21,0.03,7,,153
2011-9-21,51,48,46,48,46,39,94,85,76,30.00,29.74,29.58,10,7,1,24,9,29,0.07,8,,337
2011-9-22,48,44,41,39,37,34,87,76,66,30.15,30.11,30.07,10,10,10,12,8,,0.00,8,,336
2011-9-23,57,49,41,45,42,37,87,75,63,30.18,30.14,30.07,10,10,2,12,2,,0.00,5,,164
2011-9-24,55,45,35,45,39,30,93,83,67,30.13,30.09,30.05,10,7,0,7,2,,0.00,5,,154
2011-9-25,59,47,35,46,40,32,93,82,63,30.10,30.06,30.03,10,5,0,9,2,,0.00,6,,129
2011-9-26,71,55,39,52,44,36,93,71,41,30.04,30.00,29.94,10,7,0,13,3,,0.00,0,,13
2011-9-27,75,58,42,54,47,39,93,69,38,29.98,29.94,29.89,10,8,0,12,2,,0.00,0,,332
2011-9-28,78,60,41,55,47,37,93,68,30,29.88,29.82,29.74,10,7,0,7,2,,0.00,0,,214
2011-9-29,64,56,48,52,44,32,87,63,32,30.05,29.82,29.70,10,10,9,31,16,44,0.02,5,,320
2011-9-30,55,48,41,43,35,30,81,62,38,30.28,30.22,30.13,10,10,10,16,11,23,0.00,1,,346